Time;durP1;ratioP1;P1;durP2;ratioP2;P2;SDS_P1;SDS_P2;PMS_P1;PMS_P2;Temp;Humidity;BMP_temperature;BMP_pressure;BME280_temperature;BME280_humidity;BME280_pressure;Samples;Min_cycle;Max_cycle;Signal;HPM_P1;HPM_P2
2023/10/30 00:00:09;;;;;;;;;;;;;;;14.26;63.94;99722.63;4937638;29;19926;-79
2023/10/30 00:02:35;;;;;;;;;;;;;;;14.26;63.79;99710.94;4937348;29;19922;-79
2023/10/30 00:05:01;;;;;;;;;;;;;;;14.24;63.91;99727.53;4937718;29;20375;-79
2023/10/30 00:07:27;;;;;;;;;;;;;;;14.22;63.88;99729.72;4920608;29;19922;-79
2023/10/30 00:09:53;;;;;;;;;;;;;;;14.21;63.98;99724.56;4952183;29;20058;-79
2023/10/30 00:12:18;;;;;;;;;;;;;;;14.21;63.95;99733.56;4920431;29;20394;-79
2023/10/30 00:14:43;;;;;;;;;;;;;;;14.21;63.99;99740.88;4919980;29;19922;-80
2023/10/30 00:17:08;;;;;;;;;;;;;;;14.20;63.99;99739.25;4936637;29;19919;-81
2023/10/30 00:19:34;;;;;;;;;;;;;;;14.19;63.76;99745.81;4920269;29;19926;-79
2023/10/30 00:21:59;;;;;;;;;;;;;;;14.17;63.87;99740.66;4936264;29;19919;-79
2023/10/30 00:24:25;;;;;;;;;;;;;;;14.16;63.71;99744.47;4936941;29;19915;-79
2023/10/30 00:26:50;;;;;;;;;;;;;;;14.15;63.70;99751.00;4936152;29;19922;-79
2023/10/30 00:29:16;;;;;;;;;;;;;;;14.13;63.97;99747.75;4937116;29;20378;-79
2023/10/30 00:31:41;;;;;;;;;;;;;;;14.13;63.97;99760.53;4935966;29;19918;-79
2023/10/30 00:34:10;;;;;;;;;;;;;;;14.10;64.01;99750.25;4936012;29;20351;-79
2023/10/30 00:36:35;;;;;;;;;;;;;;;14.07;63.87;99751.66;4920802;29;19919;-78
2023/10/30 00:39:01;;;;;;;;;;;;;;;14.05;63.90;99749.22;4936986;29;19922;-78
2023/10/30 00:41:26;;;;;;;;;;;;;;;14.04;64.02;99758.47;4935711;29;20025;-78
2023/10/30 00:43:51;;;;;;;;;;;;;;;14.03;63.88;99756.84;4920163;29;19947;-78
2023/10/30 00:46:17;;;;;;;;;;;;;;;14.03;63.85;99761.47;4936770;29;20318;-78
2023/10/30 00:48:42;;;;;;;;;;;;;;;14.02;63.90;99766.09;4935288;29;19925;-80
2023/10/30 00:51:07;;;;;;;;;;;;;;;14.01;63.95;99772.63;4935805;29;19915;-78
2023/10/30 00:53:33;;;;;;;;;;;;;;;14.01;63.74;99774.50;4951472;29;20386;-78
2023/10/30 00:55:58;;;;;;;;;;;;;;;14.00;63.89;99773.72;4935373;29;19915;-78
2023/10/30 00:58:23;;;;;;;;;;;;;;;13.99;63.96;99788.38;4951338;29;20367;-78
2023/10/30 01:00:48;;;;;;;;;;;;;;;13.98;64.02;99783.25;4935501;29;19922;-78
2023/10/30 01:03:15;;;;;;;;;;;;;;;13.99;63.74;99787.59;4935423;29;19922;-82
2023/10/30 01:05:40;;;;;;;;;;;;;;;13.96;63.79;99790.84;4936849;29;21872;-79
2023/10/30 01:08:08;;;;;;;;;;;;;;;13.94;63.95;99806.66;4919711;29;20058;-78
2023/10/30 01:10:34;;;;;;;;;;;;;;;13.93;63.77;99794.97;4920542;29;19923;-78
2023/10/30 01:13:00;;;;;;;;;;;;;;;13.92;63.98;99806.94;4936001;29;20255;-78
2023/10/30 01:15:25;;;;;;;;;;;;;;;13.92;64.10;99803.41;4934694;29;19919;-79
2023/10/30 01:17:51;;;;;;;;;;;;;;;13.91;63.82;99807.19;4920182;29;19926;-78
2023/10/30 01:20:16;;;;;;;;;;;;;;;13.90;63.71;99813.75;4935587;29;19969;-78
2023/10/30 01:22:41;;;;;;;;;;;;;;;13.89;63.83;99820.28;4935331;29;20031;-78
2023/10/30 01:25:07;;;;;;;;;;;;;;;13.88;63.74;99808.59;4936411;29;19968;-79
2023/10/30 01:27:33;;;;;;;;;;;;;;;13.88;63.93;99810.50;4935635;29;19961;-78
2023/10/30 01:29:58;;;;;;;;;;;;;;;13.88;64.03;99810.50;4920349;29;19918;-78
2023/10/30 01:32:23;;;;;;;;;;;;;;;13.87;63.98;99806.97;4935219;29;20397;-79
2023/10/30 01:34:49;;;;;;;;;;;;;;;13.85;63.82;99807.25;4935584;29;19919;-78
2023/10/30 01:37:15;;;;;;;;;;;;;;;13.85;63.72;99807.25;4935639;29;20377;-79
2023/10/30 01:39:40;;;;;;;;;;;;;;;13.84;63.78;99797.50;4935781;29;19947;-78
2023/10/30 01:42:06;;;;;;;;;;;;;;;13.83;64.01;99804.03;4919866;29;19926;-78
2023/10/30 01:44:31;;;;;;;;;;;;;;;13.84;63.82;99808.38;4934824;29;19942;-78
2023/10/30 01:46:57;;;;;;;;;;;;;;;13.82;63.73;99810.56;4934963;29;19921;-78
2023/10/30 01:49:22;;;;;;;;;;;;;;;13.82;63.75;99817.88;4935977;29;19919;-81
2023/10/30 01:51:47;;;;;;;;;;;;;;;13.81;63.84;99817.09;4951500;29;19932;-78
2023/10/30 01:54:13;;;;;;;;;;;;;;;13.80;63.88;99818.16;4919908;29;20274;-78
2023/10/30 01:56:39;;;;;;;;;;;;;;;13.80;63.96;99818.16;4935207;29;19915;-78
2023/10/30 01:59:05;;;;;;;;;;;;;;;13.78;63.75;99817.66;4919300;29;20371;-80
2023/10/30 02:01:31;;;;;;;;;;;;;;;13.78;63.80;99816.84;4919045;29;20272;-80
2023/10/30 02:03:58;;;;;;;;;;;;;;;13.77;63.99;99818.75;4934840;29;19921;-79
2023/10/30 02:06:23;;;;;;;;;;;;;;;13.76;63.75;99806.28;4935268;29;19919;-79
2023/10/30 02:08:49;;;;;;;;;;;;;;;13.76;64.07;99816.34;4937068;29;20364;-78
2023/10/30 02:11:14;;;;;;;;;;;;;;;13.74;63.79;99816.63;4954463;29;20342;-78
2023/10/30 02:13:39;;;;;;;;;;;;;;;13.73;64.06;99820.41;4939306;29;19926;-78
2023/10/30 02:16:05;;;;;;;;;;;;;;;13.73;63.92;99819.59;4938592;29;19918;-78
2023/10/30 02:18:30;;;;;;;;;;;;;;;13.73;63.89;99823.13;4940081;29;19921;-79
2023/10/30 02:20:55;;;;;;;;;;;;;;;13.71;63.99;99817.19;4938351;29;19919;-79
2023/10/30 02:23:21;;;;;;;;;;;;;;;13.72;63.76;99818.78;4954307;29;20374;-80
2023/10/30 02:25:46;;;;;;;;;;;;;;;13.71;63.94;99814.47;4953957;29;20017;-78
2023/10/30 02:28:11;;;;;;;;;;;;;;;13.72;63.95;99815.28;4922863;29;20371;-78
2023/10/30 02:30:36;;;;;;;;;;;;;;;13.70;64.13;99812.84;4939391;29;19915;-80
2023/10/30 02:33:02;;;;;;;;;;;;;;;13.70;63.86;99815.56;4938099;29;20267;-78
2023/10/30 02:35:27;;;;;;;;;;;;;;;13.69;64.20;99816.66;4953881;29;19914;-78
2023/10/30 02:37:52;;;;;;;;;;;;;;;13.69;63.92;99815.84;4922612;29;19935;-79
2023/10/30 02:40:18;;;;;;;;;;;;;;;13.67;63.95;99813.41;4939767;29;19922;-79
2023/10/30 02:42:43;;;;;;;;;;;;;;;13.68;63.96;99806.88;4938106;29;19970;-81
2023/10/30 02:45:08;;;;;;;;;;;;;;;13.67;63.79;99812.63;4954339;29;20006;-78
2023/10/30 02:47:34;;;;;;;;;;;;;;;13.66;63.99;99810.97;4939357;29;19918;-82
2023/10/30 02:50:00;;;;;;;;;;;;;;;13.67;64.04;99809.91;4939062;29;20359;-79
2023/10/30 02:52:26;;;;;;;;;;;;;;;13.66;64.03;99816.41;4937927;29;19915;-78
2023/10/30 02:54:51;;;;;;;;;;;;;;;13.64;63.95;99806.66;4921748;29;20425;-78
2023/10/30 02:57:16;;;;;;;;;;;;;;;13.65;64.16;99818.31;4953657;29;19914;-78
2023/10/30 02:59:42;;;;;;;;;;;;;;;13.64;64.03;99824.84;4953372;29;19923;-78
2023/10/30 03:02:07;;;;;;;;;;;;;;;13.63;63.94;99812.34;4937477;29;19973;-79
2023/10/30 03:04:32;;;;;;;;;;;;;;;13.61;63.82;99815.38;4937631;29;19919;-79
2023/10/30 03:06:58;;;;;;;;;;;;;;;13.61;64.21;99828.94;4937369;29;19921;-79
2023/10/30 03:09:31;;;;;;;;;;;;;;;13.59;64.07;99824.91;4921543;29;20074;-80
2023/10/30 03:11:56;;;;;;;;;;;;;;;13.59;64.18;99822.19;4937315;29;19911;-79
2023/10/30 03:14:21;;;;;;;;;;;;;;;13.58;64.01;99829.53;4937390;29;19945;-79
2023/10/30 03:16:47;;;;;;;;;;;;;;;13.59;64.16;99841.19;4937525;29;19914;-79
2023/10/30 03:19:12;;;;;;;;;;;;;;;13.59;63.95;99838.47;4937419;29;20355;-79
2023/10/30 03:21:37;;;;;;;;;;;;;;;13.58;63.90;99842.25;4937970;29;19958;-81
2023/10/30 03:24:03;;;;;;;;;;;;;;;13.57;63.93;99841.44;4937192;29;19975;-78
2023/10/30 03:26:29;;;;;;;;;;;;;;;13.57;63.68;99837.94;4937418;29;19957;-78
2023/10/30 03:28:54;;;;;;;;;;;;;;;13.56;63.97;99836.31;4937980;29;19926;-78
2023/10/30 03:31:19;;;;;;;;;;;;;;;13.57;63.91;99827.06;4938337;29;19918;-78
2023/10/30 03:33:45;;;;;;;;;;;;;;;13.56;64.03;99820.03;4952830;29;19979;-78
2023/10/30 03:36:10;;;;;;;;;;;;;;;13.55;64.00;99815.69;4938140;29;19919;-78
2023/10/30 03:38:35;;;;;;;;;;;;;;;13.55;63.83;99812.97;4937895;29;19915;-79
2023/10/30 03:41:01;;;;;;;;;;;;;;;13.55;63.94;99818.41;4937261;29;19921;-79
2023/10/30 03:43:26;;;;;;;;;;;;;;;13.54;63.88;99811.38;4937063;29;20378;-78
2023/10/30 03:45:51;;;;;;;;;;;;;;;13.53;64.11;99813.28;4936748;29;19969;-78
2023/10/30 03:48:17;;;;;;;;;;;;;;;13.53;64.01;99815.16;4936641;29;19967;-79
2023/10/30 03:50:42;;;;;;;;;;;;;;;13.52;64.02;99817.06;4936507;29;19923;-80
2023/10/30 03:53:07;;;;;;;;;;;;;;;13.52;64.13;99817.06;4936718;29;19918;-78
2023/10/30 03:55:32;;;;;;;;;;;;;;;13.51;64.07;99817.38;4920730;29;19922;-79
2023/10/30 03:57:58;;;;;;;;;;;;;;;13.52;63.96;99816.28;4936323;29;19925;-78
2023/10/30 04:00:23;;;;;;;;;;;;;;;13.49;63.95;99814.94;4921462;29;19942;-79
2023/10/30 04:02:48;;;;;;;;;;;;;;;13.50;64.08;99823.88;4936734;29;20414;-79
2023/10/30 04:05:14;;;;;;;;;;;;;;;13.49;64.08;99827.69;4937418;29;20338;-78
2023/10/30 04:07:39;;;;;;;;;;;;;;;13.48;64.15;99820.63;4936301;29;19946;-78
2023/10/30 04:10:05;;;;;;;;;;;;;;;13.48;64.08;99824.19;4937680;29;19958;-78
2023/10/30 04:12:30;;;;;;;;;;;;;;;13.48;64.19;99812.50;4936327;29;19918;-78
2023/10/30 04:14:57;;;;;;;;;;;;;;;13.47;64.01;99824.47;4935686;29;19919;-77
2023/10/30 04:17:23;;;;;;;;;;;;;;;13.46;64.22;99814.72;4937527;29;19973;-78
2023/10/30 04:19:48;;;;;;;;;;;;;;;13.46;64.12;99818.22;4937580;29;19919;-80
2023/10/30 04:22:13;;;;;;;;;;;;;;;13.45;64.15;99823.94;4936049;29;20323;-78
2023/10/30 04:24:38;;;;;;;;;;;;;;;13.45;64.18;99818.50;4937195;29;19998;-78
2023/10/30 04:27:05;;;;;;;;;;;;;;;13.44;64.20;99830.47;4920525;29;19926;-78
2023/10/30 04:29:31;;;;;;;;;;;;;;;13.42;64.08;99823.41;4920086;29;19970;-80
2023/10/30 04:31:56;;;;;;;;;;;;;;;13.43;64.20;99824.22;4951253;28;19915;-78
2023/10/30 04:34:21;;;;;;;;;;;;;;;13.44;64.09;99841.31;4919954;29;20010;-78
2023/10/30 04:36:47;;;;;;;;;;;;;;;13.42;64.08;99847.81;4935687;29;19969;-79
2023/10/30 04:39:13;;;;;;;;;;;;;;;13.42;64.09;99830.72;4937246;29;19962;-78
2023/10/30 04:41:38;;;;;;;;;;;;;;;13.40;64.11;99836.41;4920358;29;19977;-78
2023/10/30 04:44:04;;;;;;;;;;;;;;;13.40;64.04;99841.84;4919793;29;20286;-79
2023/10/30 04:46:29;;;;;;;;;;;;;;;13.40;64.17;99832.91;4935388;29;20398;-81
2023/10/30 04:48:55;;;;;;;;;;;;;;;13.39;64.20;99834.81;4935662;29;19926;-79
2023/10/30 04:51:20;;;;;;;;;;;;;;;13.38;64.23;99838.63;4935529;29;19915;-79
2023/10/30 04:53:45;;;;;;;;;;;;;;;13.39;64.24;99834.00;4919763;29;19926;-78
2023/10/30 04:56:11;;;;;;;;;;;;;;;13.39;64.09;99831.31;4919977;29;19926;-78
2023/10/30 04:58:36;;;;;;;;;;;;;;;13.38;64.25;99825.06;4920382;29;19926;-79
2023/10/30 05:01:05;;;;;;;;;;;;;;;13.38;63.97;99822.34;4935518;29;19919;-80
2023/10/30 05:03:31;;;;;;;;;;;;;;;13.38;64.16;99818.81;4935438;29;20279;-78
2023/10/30 05:06:00;;;;;;;;;;;;;;;13.37;64.16;99828.06;4935373;29;19919;-81
2023/10/30 05:08:26;;;;;;;;;;;;;;;13.37;64.43;99826.16;4935444;29;19915;-78
2023/10/30 05:10:51;;;;;;;;;;;;;;;13.36;64.07;99821.81;4919533;29;20017;-80
2023/10/30 05:13:16;;;;;;;;;;;;;;;13.37;64.31;99837.00;4919984;29;19915;-79
2023/10/30 05:15:41;;;;;;;;;;;;;;;13.36;64.19;99826.44;4935352;29;19931;-79
2023/10/30 05:18:07;;;;;;;;;;;;;;;13.35;64.02;99812.06;4919672;29;20363;-78
2023/10/30 05:20:32;;;;;;;;;;;;;;;13.34;64.05;99809.66;4935314;29;19925;-80
2023/10/30 05:22:58;;;;;;;;;;;;;;;13.34;64.19;99806.94;4919687;29;19918;-81
2023/10/30 05:25:23;;;;;;;;;;;;;;;13.33;64.05;99806.13;4935208;29;19919;-78
2023/10/30 05:27:48;;;;;;;;;;;;;;;13.30;63.91;99803.97;4919389;29;19958;-79
2023/10/30 05:30:14;;;;;;;;;;;;;;;13.30;64.22;99809.38;4936931;29;19969;-79
2023/10/30 05:32:39;;;;;;;;;;;;;;;13.30;64.38;99800.44;4951243;29;19919;-79
2023/10/30 05:35:04;;;;;;;;;;;;;;;13.29;64.35;99815.91;4919270;29;19919;-79
2023/10/30 05:37:30;;;;;;;;;;;;;;;13.29;64.24;99818.63;4936902;29;20005;-78
2023/10/30 05:39:55;;;;;;;;;;;;;;;13.28;64.21;99806.16;4936375;29;20009;-78
2023/10/30 05:42:21;;;;;;;;;;;;;;;13.27;64.17;99799.09;4936025;29;19921;-79
2023/10/30 05:44:46;;;;;;;;;;;;;;;13.27;64.23;99795.59;4940249;29;20363;-79
2023/10/30 05:47:13;;;;;;;;;;;;;;;13.27;64.30;99787.47;4938619;29;20009;-79
2023/10/30 05:49:38;;;;;;;;;;;;;;;13.27;64.48;99784.75;4940103;29;20260;-79
2023/10/30 05:52:04;;;;;;;;;;;;;;;13.26;64.28;99791.25;4923286;29;19977;-81
2023/10/30 05:54:29;;;;;;;;;;;;;;;13.26;64.20;99799.38;4938783;29;20319;-78
2023/10/30 05:56:54;;;;;;;;;;;;;;;13.26;64.27;99796.66;4938730;29;19915;-79
2023/10/30 05:59:20;;;;;;;;;;;;;;;13.25;64.34;99801.25;4940153;29;19974;-78
2023/10/30 06:01:47;;;;;;;;;;;;;;;13.26;64.43;99802.09;4940148;29;20278;-79
2023/10/30 06:04:13;;;;;;;;;;;;;;;13.25;64.27;99797.75;4938592;29;20005;-78
2023/10/30 06:06:38;;;;;;;;;;;;;;;13.24;64.37;99799.66;4938305;29;20343;-79
2023/10/30 06:09:04;;;;;;;;;;;;;;;13.23;64.31;99802.63;4923396;29;20319;-79
2023/10/30 06:11:29;;;;;;;;;;;;;;;13.23;64.11;99800.75;4938349;29;19915;-78
2023/10/30 06:13:54;;;;;;;;;;;;;;;13.23;64.12;99810.78;4922514;29;19981;-78
2023/10/30 06:16:20;;;;;;;;;;;;;;;13.23;64.33;99817.03;4938848;29;19919;-78
2023/10/30 06:18:45;;;;;;;;;;;;;;;13.23;64.15;99825.16;4939480;29;19915;-79
2023/10/30 06:21:17;;;;;;;;;;;;;;;13.22;64.16;99818.09;4923026;29;19926;-78
2023/10/30 06:23:42;;;;;;;;;;;;;;;13.22;64.65;99826.25;4938333;29;19917;-79
2023/10/30 06:26:12;;;;;;;;;;;;;;;13.21;64.52;99820.00;4938079;29;20001;-83
2023/10/30 06:28:38;;;;;;;;;;;;;;;13.22;64.37;99823.53;4938246;29;19915;-81
2023/10/30 06:31:04;;;;;;;;;;;;;;;13.22;64.22;99839.78;4940253;29;19922;-80
2023/10/30 06:33:30;;;;;;;;;;;;;;;13.23;64.21;99844.16;4922145;29;19914;-82
2023/10/30 06:35:58;;;;;;;;;;;;;;;13.22;64.65;99845.22;4939066;29;19914;-78
2023/10/30 06:38:24;;;;;;;;;;;;;;;13.23;64.43;99848.72;4937963;29;19914;-78
2023/10/30 06:40:49;;;;;;;;;;;;;;;13.22;64.22;99837.09;4939300;29;19926;-79
2023/10/30 06:43:14;;;;;;;;;;;;;;;13.23;64.66;99837.88;4953830;29;20256;-76
2023/10/30 06:45:39;;;;;;;;;;;;;;;13.21;64.40;99833.56;4939808;29;19973;-77
2023/10/30 06:48:05;;;;;;;;;;;;;;;13.22;64.46;99842.50;4922581;29;19926;-77
2023/10/30 06:50:30;;;;;;;;;;;;;;;13.23;64.36;99837.88;4922407;29;19930;-78
2023/10/30 06:52:55;;;;;;;;;;;;;;;13.21;64.36;99838.19;4938888;29;20290;-78
2023/10/30 06:55:20;;;;;;;;;;;;;;;13.20;64.65;99836.56;4937002;29;20271;-81
2023/10/30 06:57:46;;;;;;;;;;;;;;;13.19;64.38;99827.63;4921841;29;20068;-81
2023/10/30 07:00:11;;;;;;;;;;;;;;;13.20;64.52;99831.97;4953696;29;19926;-78
2023/10/30 07:02:37;;;;;;;;;;;;;;;13.20;64.38;99837.38;4921467;29;19942;-81
2023/10/30 07:05:02;;;;;;;;;;;;;;;13.19;64.46;99843.06;4937740;29;19925;-80
2023/10/30 07:07:28;;;;;;;;;;;;;;;13.18;64.40;99849.59;4937423;29;20286;-80
2023/10/30 07:09:53;;;;;;;;;;;;;;;13.18;64.42;99857.75;4953584;29;19956;-80
2023/10/30 07:12:18;;;;;;;;;;;;;;;13.17;64.53;99859.63;4937621;29;19954;-79
2023/10/30 07:14:43;;;;;;;;;;;;;;;13.18;64.27;99863.16;4938954;29;19966;-80
2023/10/30 07:17:09;;;;;;;;;;;;;;;13.17;64.32;99870.47;4937634;29;19930;-78
2023/10/30 07:19:34;;;;;;;;;;;;;;;13.17;64.54;99862.31;4953325;29;19919;-77
2023/10/30 07:22:00;;;;;;;;;;;;;;;13.16;64.29;99871.56;4938544;29;20339;-77
2023/10/30 07:24:26;;;;;;;;;;;;;;;13.15;64.57;99877.25;4953008;29;19946;-77
2023/10/30 07:26:51;;;;;;;;;;;;;;;13.15;64.49;99888.94;4938171;29;20009;-78
2023/10/30 07:29:16;;;;;;;;;;;;;;;13.16;64.52;99903.31;4921238;29;19927;-77
2023/10/30 07:31:42;;;;;;;;;;;;;;;13.15;64.38;99907.09;4938003;29;19987;-79
2023/10/30 07:34:07;;;;;;;;;;;;;;;13.15;64.37;99905.22;4921979;29;19941;-81
2023/10/30 07:36:32;;;;;;;;;;;;;;;13.16;64.36;99903.31;4937898;29;19918;-81
2023/10/30 07:38:57;;;;;;;;;;;;;;;13.14;64.60;99892.72;4937414;29;20283;-79
2023/10/30 07:41:23;;;;;;;;;;;;;;;13.14;64.23;99894.63;4936952;29;19914;-80
2023/10/30 07:43:48;;;;;;;;;;;;;;;13.14;64.52;99903.56;4937376;29;19918;-81
2023/10/30 07:46:14;;;;;;;;;;;;;;;13.13;64.58;99904.69;4936956;29;20441;-81
2023/10/30 07:48:39;;;;;;;;;;;;;;;13.13;64.43;99909.28;4936778;29;19915;-82
2023/10/30 07:51:04;;;;;;;;;;;;;;;13.13;64.66;99904.69;4936468;29;19957;-78
2023/10/30 07:53:30;;;;;;;;;;;;;;;13.13;64.62;99898.44;4952595;29;19914;-82
2023/10/30 07:55:56;;;;;;;;;;;;;;;13.13;64.65;99898.44;4920361;29;19919;-79
2023/10/30 07:58:22;;;;;;;;;;;;;;;13.12;64.54;99896.81;4936701;29;19922;-80
2023/10/30 08:00:47;;;;;;;;;;;;;;;13.13;64.62;99909.28;4920936;29;19926;-80
2023/10/30 08:03:14;;;;;;;;;;;;;;;13.13;64.47;99904.69;4920811;29;19924;-83
2023/10/30 08:05:40;;;;;;;;;;;;;;;13.13;64.52;99904.69;4935801;29;19923;-80
2023/10/30 08:08:05;;;;;;;;;;;;;;;13.13;64.60;99901.97;4936699;29;20256;-82
2023/10/30 08:10:31;;;;;;;;;;;;;;;13.12;64.69;99900.31;4936750;29;19925;-80
2023/10/30 08:12:57;;;;;;;;;;;;;;;13.13;64.51;99901.97;4920333;29;20014;-81
2023/10/30 08:15:22;;;;;;;;;;;;;;;13.13;64.47;99901.16;4935747;29;19922;-79
2023/10/30 08:17:47;;;;;;;;;;;;;;;13.14;64.51;99900.06;4937228;29;19918;-83
2023/10/30 08:20:13;;;;;;;;;;;;;;;13.13;64.48;99912.81;4935504;29;19919;-81
2023/10/30 08:22:38;;;;;;;;;;;;;;;13.12;64.75;99913.88;4936357;29;19942;-83
2023/10/30 08:25:04;;;;;;;;;;;;;;;13.13;64.60;99917.44;4919936;29;19930;-82
2023/10/30 08:27:30;;;;;;;;;;;;;;;13.13;64.58;99915.53;4937218;29;19914;-83
2023/10/30 08:29:55;;;;;;;;;;;;;;;13.14;64.68;99905.47;4937301;29;19962;-81
2023/10/30 08:32:21;;;;;;;;;;;;;;;13.14;64.75;99914.41;4935821;29;19914;-81
2023/10/30 08:34:46;;;;;;;;;;;;;;;13.14;64.68;99911.72;4935452;29;20076;-80
2023/10/30 08:37:11;;;;;;;;;;;;;;;13.16;64.67;99908.72;4935005;29;19975;-80
2023/10/30 08:39:37;;;;;;;;;;;;;;;13.15;64.70;99897.06;4919735;29;19926;-84
2023/10/30 08:42:02;;;;;;;;;;;;;;;13.16;64.41;99895.97;4920200;29;19926;-81
2023/10/30 08:44:28;;;;;;;;;;;;;;;13.16;64.73;99897.88;4936550;29;19919;-81
2023/10/30 08:46:53;;;;;;;;;;;;;;;13.17;64.52;99902.19;4935749;29;19922;-81
2023/10/30 08:49:19;;;;;;;;;;;;;;;13.17;64.47;99916.56;4919664;29;19925;-79
2023/10/30 08:51:44;;;;;;;;;;;;;;;13.19;64.47;99917.09;4935533;29;19923;-80
2023/10/30 08:54:10;;;;;;;;;;;;;;;13.18;64.70;99911.97;4935230;29;19930;-80
2023/10/30 08:56:36;;;;;;;;;;;;;;;13.19;64.73;99913.59;4936326;29;20277;-81
2023/10/30 08:59:03;;;;;;;;;;;;;;;13.18;64.80;99891.09;4935298;29;19981;-82
2023/10/30 09:01:32;;;;;;;;;;;;;;;13.19;64.55;99910.88;4935864;29;19915;-79
2023/10/30 09:03:58;;;;;;;;;;;;;;;13.20;64.81;99918.75;4935622;29;19915;-80
2023/10/30 09:06:26;;;;;;;;;;;;;;;13.21;64.67;99911.41;4935479;29;20324;-81
2023/10/30 09:08:52;;;;;;;;;;;;;;;13.22;64.52;99910.31;4937064;29;19965;-79
2023/10/30 09:11:22;;;;;;;;;;;;;;;13.23;64.75;99920.06;4951663;29;20281;-83
2023/10/30 09:13:47;;;;;;;;;;;;;;;13.24;64.60;99921.69;4919860;29;20386;-80
2023/10/30 09:16:12;;;;;;;;;;;;;;;13.27;64.69;99912.22;4936852;29;19919;-79
2023/10/30 09:18:38;;;;;;;;;;;;;;;13.28;64.68;99905.69;4935205;29;19919;-81
2023/10/30 09:21:04;;;;;;;;;;;;;;;13.29;64.44;99904.59;4937119;29;20327;-82
2023/10/30 09:23:31;;;;;;;;;;;;;;;13.30;64.92;99892.66;4935307;29;20036;-84
2023/10/30 09:25:56;;;;;;;;;;;;;;;13.32;64.88;99907.56;4920094;29;19919;-83
2023/10/30 09:28:21;;;;;;;;;;;;;;;13.32;64.71;99896.72;4936918;29;19925;-80
2023/10/30 09:30:47;;;;;;;;;;;;;;;13.33;64.65;99892.09;4919540;29;20025;-84
2023/10/30 09:33:13;;;;;;;;;;;;;;;13.33;64.78;99909.19;4935646;29;19925;-81
2023/10/30 09:35:38;;;;;;;;;;;;;;;13.34;64.91;99915.44;4919226;29;20371;-82
2023/10/30 09:38:04;;;;;;;;;;;;;;;13.35;64.91;99911.59;4936440;29;19923;-82
2023/10/30 09:40:31;;;;;;;;;;;;;;;13.36;64.55;99911.34;4951185;29;20402;-84
2023/10/30 09:42:57;;;;;;;;;;;;;;;13.38;64.96;99911.88;4935042;29;19911;-81
2023/10/30 09:45:24;;;;;;;;;;;;;;;13.40;64.68;99908.88;4936068;29;19915;-83
2023/10/30 09:47:53;;;;;;;;;;;;;;;13.42;64.88;99907.50;4934732;29;19914;-82
2023/10/30 09:50:19;;;;;;;;;;;;;;;13.43;64.79;99900.19;4936619;29;19922;-84
2023/10/30 09:52:51;;;;;;;;;;;;;;;13.45;64.71;99900.69;4934036;29;19918;-81
2023/10/30 09:55:23;;;;;;;;;;;;;;;13.45;64.77;99895.25;4935026;29;19919;-80
2023/10/30 09:57:49;;;;;;;;;;;;;;;13.47;64.67;99887.66;4935068;29;19915;-82
2023/10/30 10:00:15;;;;;;;;;;;;;;;13.48;64.82;99883.03;4936065;29;20360;-81
2023/10/30 10:02:41;;;;;;;;;;;;;;;13.48;64.93;99881.16;4934407;29;19954;-86
2023/10/30 10:05:07;;;;;;;;;;;;;;;13.49;64.91;99881.97;4919282;29;20017;-84
2023/10/30 10:07:34;;;;;;;;;;;;;;;13.50;64.68;99884.38;4952596;29;19954;-79
2023/10/30 10:10:02;;;;;;;;;;;;;;;13.51;64.69;99879.78;4935497;29;19911;-82
2023/10/30 10:12:48;;;;;;;;;;;;;;;13.52;64.84;99876.75;4936078;29;19919;-80
2023/10/30 10:15:13;;;;;;;;;;;;;;;13.55;64.75;99870.75;4937895;29;19958;-80
2023/10/30 10:17:42;;;;;;;;;;;;;;;13.57;64.95;99867.78;4918739;29;20268;-80
2023/10/30 10:20:08;;;;;;;;;;;;;;;13.58;64.72;99869.38;4935007;29;19915;-79
2023/10/30 10:22:34;;;;;;;;;;;;;;;13.59;64.84;99866.41;4935425;29;19914;-80
2023/10/30 10:24:59;;;;;;;;;;;;;;;13.61;64.79;99868.84;4918856;29;20017;-83
2023/10/30 10:27:25;;;;;;;;;;;;;;;13.61;64.97;99875.06;4935324;29;19915;-83
2023/10/30 10:29:52;;;;;;;;;;;;;;;13.63;64.78;99869.34;4919225;29;20018;-80
2023/10/30 10:32:17;;;;;;;;;;;;;;;13.64;64.92;99873.69;4938767;29;19922;-80
2023/10/30 10:34:43;;;;;;;;;;;;;;;13.66;64.93;99874.22;4938992;29;19918;-81
2023/10/30 10:37:16;;;;;;;;;;;;;;;13.67;64.84;99881.25;4954125;29;19926;-80
2023/10/30 10:39:46;;;;;;;;;;;;;;;13.68;64.77;99882.06;4937757;29;19938;-82
2023/10/30 10:42:11;;;;;;;;;;;;;;;13.68;64.93;99868.50;4921908;29;20422;-78
2023/10/30 10:44:38;;;;;;;;;;;;;;;13.70;64.96;99869.03;4921304;29;19923;-81
2023/10/30 10:47:05;;;;;;;;;;;;;;;13.70;65.05;99867.13;4937661;29;19921;-78
2023/10/30 10:49:30;;;;;;;;;;;;;;;13.71;65.12;99874.19;4921801;29;19918;-80
2023/10/30 10:51:56;;;;;;;;;;;;;;;13.70;65.06;99872.53;4938450;29;20030;-80
2023/10/30 10:54:26;;;;;;;;;;;;;;;13.71;65.15;99871.47;4938611;29;20014;-81
2023/10/30 10:56:53;;;;;;;;;;;;;;;13.72;64.85;99875.78;4937967;29;19915;-82
2023/10/30 10:59:20;;;;;;;;;;;;;;;13.72;64.95;99873.06;4937295;29;19915;-81
2023/10/30 11:01:48;;;;;;;;;;;;;;;13.73;65.13;99866.53;4953292;29;19965;-85
2023/10/30 11:04:13;;;;;;;;;;;;;;;13.76;65.15;99867.91;4937317;29;19911;-78
2023/10/30 11:06:44;;;;;;;;;;;;;;;13.77;64.96;99864.09;4937188;29;19915;-78
2023/10/30 11:09:16;;;;;;;;;;;;;;;13.77;65.21;99862.16;4936923;29;20017;-77
2023/10/30 11:11:57;;;;;;;;;;;;;;;13.78;65.05;99855.66;4937275;29;19915;-77
2023/10/30 11:14:35;;;;;;;;;;;;;;;13.80;64.98;99848.03;4936722;29;19926;-77
2023/10/30 11:17:01;;;;;;;;;;;;;;;13.80;65.09;99845.31;4938514;29;19914;-80
2023/10/30 11:19:30;;;;;;;;;;;;;;;13.81;65.05;99829.84;4937458;29;19960;-78
2023/10/30 11:21:55;;;;;;;;;;;;;;;13.83;64.81;99833.06;4937974;29;20298;-81
2023/10/30 11:24:39;;;;;;;;;;;;;;;13.85;65.11;99833.59;4936959;29;19921;-80
2023/10/30 11:27:23;;;;;;;;;;;;;;;13.87;65.20;99836.03;4936747;29;20052;-79
2023/10/30 11:30:10;;;;;;;;;;;;;;;13.86;65.14;99829.81;4937795;29;19915;-83
2023/10/30 11:32:44;;;;;;;;;;;;;;;13.88;65.15;99818.66;4937235;29;19919;-78
2023/10/30 11:35:09;;;;;;;;;;;;;;;13.89;65.07;99823.00;4936912;29;20319;-78
2023/10/30 11:37:35;;;;;;;;;;;;;;;13.90;64.86;99819.97;4938243;29;19926;-79
2023/10/30 11:40:05;;;;;;;;;;;;;;;13.93;65.19;99810.44;4936527;29;19966;-81
2023/10/30 11:42:34;;;;;;;;;;;;;;;13.94;64.83;99821.03;4937588;29;19915;-81
2023/10/30 11:45:19;;;;;;;;;;;;;;;13.97;65.12;99806.06;4920983;29;20279;-81
2023/10/30 11:48:03;;;;;;;;;;;;;;;13.97;65.14;99804.16;4937618;29;19915;-78
2023/10/30 11:50:33;;;;;;;;;;;;;;;13.99;65.26;99806.59;4953051;29;20262;-81
2023/10/30 11:52:59;;;;;;;;;;;;;;;14.01;65.17;99794.34;4936645;29;19915;-80
2023/10/30 11:55:24;;;;;;;;;;;;;;;14.05;65.27;99794.56;4936263;29;19915;-80
2023/10/30 11:57:50;;;;;;;;;;;;;;;14.07;65.29;99784.22;4937762;29;19914;-82
2023/10/30 12:00:15;;;;;;;;;;;;;;;14.07;65.21;99787.75;4936398;29;19918;-83
2023/10/30 12:02:46;;;;;;;;;;;;;;;14.09;64.92;99770.38;4920837;29;19984;-80
2023/10/30 12:05:11;;;;;;;;;;;;;;;14.11;65.36;99777.13;4952097;29;20403;-80
2023/10/30 12:07:38;;;;;;;;;;;;;;;14.14;65.02;99775.75;4937374;29;20006;-80
2023/10/30 12:10:03;;;;;;;;;;;;;;;14.13;65.22;99764.06;4952289;29;20279;-79
2023/10/30 12:12:31;;;;;;;;;;;;;;;14.15;65.28;99761.06;4937381;29;19947;-79
2023/10/30 12:14:58;;;;;;;;;;;;;;;14.17;65.19;99764.28;4935703;29;19918;-80
2023/10/30 12:17:23;;;;;;;;;;;;;;;14.19;65.51;99757.47;4920251;29;20037;-79
2023/10/30 12:19:48;;;;;;;;;;;;;;;14.20;65.32;99748.22;4920271;29;19961;-80
2023/10/30 12:22:14;;;;;;;;;;;;;;;14.22;65.23;99745.22;4920245;29;20061;-79
2023/10/30 12:24:39;;;;;;;;;;;;;;;14.22;65.38;99737.06;4936239;29;20399;-80
2023/10/30 12:27:05;;;;;;;;;;;;;;;14.23;65.26;99736.75;4935790;29;19918;-83
2023/10/30 12:29:30;;;;;;;;;;;;;;;14.25;65.33;99728.34;4920357;29;19926;-81
2023/10/30 12:32:02;;;;;;;;;;;;;;;14.27;65.45;99728.84;4935489;29;19915;-84
2023/10/30 12:34:28;;;;;;;;;;;;;;;14.31;65.28;99731.78;4935875;29;20319;-81
2023/10/30 12:36:53;;;;;;;;;;;;;;;14.32;65.58;99719.84;4951665;29;20363;-78
2023/10/30 12:39:20;;;;;;;;;;;;;;;14.33;65.30;99716.81;4935590;29;19925;-80
2023/10/30 12:41:47;;;;;;;;;;;;;;;14.32;65.46;99712.50;4952188;29;20021;-79